sensor_id;sensor_type;location;lat;lon;timestamp;pressure;altitude;pressure_sealevel;temperature;humidity
13241;BME280;6687;47.790;7.322;2023-02-11T06:11:53;100986.03;;;-1.96;82.72
13241;BME280;6687;47.790;7.322;2023-02-11T06:14:20;100994.16;;;-2.00;81.75
13241;BME280;6687;47.790;7.322;2023-02-11T06:16:47;100993.63;;;-2.06;81.21
13241;BME280;6687;47.790;7.322;2023-02-11T06:19:14;100992.09;;;-2.25;81.27
13241;BME280;6687;47.790;7.322;2023-02-11T06:21:40;100990.03;;;-2.29;81.59
13241;BME280;6687;47.790;7.322;2023-02-11T06:24:07;100978.22;;;-2.28;81.31
13241;BME280;6687;47.790;7.322;2023-02-11T06:26:34;100983.72;;;-2.13;81.01
13241;BME280;6687;47.790;7.322;2023-02-11T06:29:02;100983.00;;;-2.42;81.27
13241;BME280;6687;47.790;7.322;2023-02-11T06:31:29;100986.56;;;-2.40;81.41
13241;BME280;6687;47.790;7.322;2023-02-11T06:33:56;100988.03;;;-2.23;80.73
13241;BME280;6687;47.790;7.322;2023-02-11T06:36:23;100981.13;;;-2.34;81.20
13241;BME280;6687;47.790;7.322;2023-02-11T06:38:50;100974.81;;;-2.18;81.01
13241;BME280;6687;47.790;7.322;2023-02-11T06:41:18;100973.31;;;-2.06;80.34
13241;BME280;6687;47.790;7.322;2023-02-11T06:43:45;100979.63;;;-2.22;80.68
13241;BME280;6687;47.790;7.322;2023-02-11T06:46:14;100977.81;;;-2.33;81.26
13241;BME280;6687;47.790;7.322;2023-02-11T06:48:41;100985.38;;;-2.53;82.08
13241;BME280;6687;47.790;7.322;2023-02-11T06:51:09;100993.22;;;-2.61;82.64
13241;BME280;6687;47.790;7.322;2023-02-11T06:53:39;101005.13;;;-2.60;82.47
13241;BME280;6687;47.790;7.322;2023-02-11T06:56:08;101007.44;;;-2.63;82.85
13241;BME280;6687;47.790;7.322;2023-02-11T06:58:35;101009.06;;;-2.24;81.99
13241;BME280;6687;47.790;7.322;2023-02-11T07:01:03;101000.75;;;-2.12;80.98
13241;BME280;6687;47.790;7.322;2023-02-11T07:03:33;100993.50;;;-1.97;80.73
13241;BME280;6687;47.790;7.322;2023-02-11T07:06:01;100992.59;;;-2.18;80.83
13241;BME280;6687;47.790;7.322;2023-02-11T07:08:28;100992.81;;;-2.26;81.07
13241;BME280;6687;47.790;7.322;2023-02-11T07:10:54;100997.66;;;-2.29;81.09
13241;BME280;6687;47.790;7.322;2023-02-11T07:13:21;101001.75;;;-2.10;80.88
13241;BME280;6687;47.790;7.322;2023-02-11T07:15:48;101004.59;;;-1.87;80.58
13241;BME280;6687;47.790;7.322;2023-02-11T07:18:15;101004.34;;;-1.80;79.80
13241;BME280;6687;47.790;7.322;2023-02-11T07:20:43;101008.16;;;-1.74;79.98
13241;BME280;6687;47.790;7.322;2023-02-11T07:23:10;101005.13;;;-1.70;80.06
13241;BME280;6687;47.790;7.322;2023-02-11T07:25:37;101003.59;;;-1.68;80.35
13241;BME280;6687;47.790;7.322;2023-02-11T07:28:04;101001.06;;;-1.58;81.19
13241;BME280;6687;47.790;7.322;2023-02-11T07:30:30;100993.56;;;-1.56;81.41
13241;BME280;6687;47.790;7.322;2023-02-11T07:32:57;100990.09;;;-1.67;82.11
13241;BME280;6687;47.790;7.322;2023-02-11T07:35:24;100988.75;;;-1.43;82.34
13241;BME280;6687;47.790;7.322;2023-02-11T07:37:52;100994.19;;;-1.38;82.99
13241;BME280;6687;47.790;7.322;2023-02-11T07:40:19;100995.72;;;-1.41;83.01
13241;BME280;6687;47.790;7.322;2023-02-11T07:42:46;101000.91;;;-1.49;83.38
13241;BME280;6687;47.790;7.322;2023-02-11T07:45:12;101009.94;;;-1.32;83.70
13241;BME280;6687;47.790;7.322;2023-02-11T07:47:39;101014.25;;;-1.11;83.58
13241;BME280;6687;47.790;7.322;2023-02-11T07:50:07;101017.72;;;-1.31;84.89
13241;BME280;6687;47.790;7.322;2023-02-11T07:52:34;101023.31;;;-1.45;86.99
13241;BME280;6687;47.790;7.322;2023-02-11T07:55:02;101026.47;;;-1.27;88.00
13241;BME280;6687;47.790;7.322;2023-02-11T07:57:29;101014.47;;;-1.08;88.51
13241;BME280;6687;47.790;7.322;2023-02-11T07:59:55;101018.53;;;-1.00;89.18
13241;BME280;6687;47.790;7.322;2023-02-11T08:02:22;101022.84;;;-0.88;89.44
13241;BME280;6687;47.790;7.322;2023-02-11T08:04:49;101030.47;;;-0.88;90.41
13241;BME280;6687;47.790;7.322;2023-02-11T08:07:16;101025.63;;;-0.75;90.62
13241;BME280;6687;47.790;7.322;2023-02-11T08:09:43;101029.34;;;-0.49;90.35
13241;BME280;6687;47.790;7.322;2023-02-11T08:12:11;101037.56;;;-0.31;89.82
13241;BME280;6687;47.790;7.322;2023-02-11T08:14:38;101033.78;;;-0.47;91.13
13241;BME280;6687;47.790;7.322;2023-02-11T08:17:05;101040.50;;;-0.37;92.02
13241;BME280;6687;47.790;7.322;2023-02-11T08:19:31;101032.22;;;-0.12;91.05
13241;BME280;6687;47.790;7.322;2023-02-11T08:21:58;101029.00;;;-0.22;91.99
13241;BME280;6687;47.790;7.322;2023-02-11T08:24:26;101032.59;;;-0.30;93.49
13241;BME280;6687;47.790;7.322;2023-02-11T08:26:53;101029.22;;;-0.18;93.72
13241;BME280;6687;47.790;7.322;2023-02-11T08:29:21;101015.59;;;0.03;92.88
13241;BME280;6687;47.790;7.322;2023-02-11T08:31:48;101013.56;;;0.21;91.95
13241;BME280;6687;47.790;7.322;2023-02-11T08:34:15;101013.91;;;0.26;91.46
13241;BME280;6687;47.790;7.322;2023-02-11T08:36:45;101022.09;;;0.22;91.76
13241;BME280;6687;47.790;7.322;2023-02-11T08:39:14;101009.50;;;0.35;91.08
13241;BME280;6687;47.790;7.322;2023-02-11T08:41:42;101016.88;;;0.42;90.38
13241;BME280;6687;47.790;7.322;2023-02-11T08:44:09;101015.63;;;0.37;90.67
13241;BME280;6687;47.790;7.322;2023-02-11T08:46:37;101024.72;;;0.45;91.01
13241;BME280;6687;47.790;7.322;2023-02-11T08:49:04;101023.31;;;0.49;91.21
13241;BME280;6687;47.790;7.322;2023-02-11T08:51:31;101020.97;;;0.40;92.72
13241;BME280;6687;47.790;7.322;2023-02-11T08:53:58;101025.41;;;0.43;93.00
13241;BME280;6687;47.790;7.322;2023-02-11T08:56:25;101022.06;;;0.44;93.64
13241;BME280;6687;47.790;7.322;2023-02-11T08:58:53;101009.59;;;0.58;93.33
13241;BME280;6687;47.790;7.322;2023-02-11T09:01:22;101008.19;;;0.74;92.06
13241;BME280;6687;47.790;7.322;2023-02-11T09:03:51;101008.50;;;0.67;91.88
13241;BME280;6687;47.790;7.322;2023-02-11T09:06:19;101009.41;;;0.79;91.13
13241;BME280;6687;47.790;7.322;2023-02-11T09:08:49;101001.06;;;0.82;90.81
13241;BME280;6687;47.790;7.322;2023-02-11T09:11:17;100998.44;;;0.80;91.47
13241;BME280;6687;47.790;7.322;2023-02-11T09:13:44;100992.78;;;0.84;90.31
13241;BME280;6687;47.790;7.322;2023-02-11T09:16:17;101003.88;;;0.85;90.68
13241;BME280;6687;47.790;7.322;2023-02-11T09:18:44;101001.00;;;0.92;89.65
13241;BME280;6687;47.790;7.322;2023-02-11T09:21:13;101016.28;;;0.68;91.77
13241;BME280;6687;47.790;7.322;2023-02-11T09:23:40;101017.84;;;0.78;93.10
13241;BME280;6687;47.790;7.322;2023-02-11T09:26:11;101019.28;;;0.86;93.22
13241;BME280;6687;47.790;7.322;2023-02-11T09:28:38;101017.50;;;0.85;93.34
13241;BME280;6687;47.790;7.322;2023-02-11T09:31:06;101010.94;;;0.77;94.27
13241;BME280;6687;47.790;7.322;2023-02-11T09:33:34;101012.09;;;0.92;94.00
13241;BME280;6687;47.790;7.322;2023-02-11T09:36:01;101015.41;;;0.91;93.71
13241;BME280;6687;47.790;7.322;2023-02-11T09:38:29;101021.59;;;0.83;94.16
13241;BME280;6687;47.790;7.322;2023-02-11T09:40:56;101016.31;;;1.04;92.87
13241;BME280;6687;47.790;7.322;2023-02-11T09:43:27;101013.63;;;0.90;93.84
13241;BME280;6687;47.790;7.322;2023-02-11T09:45:57;101019.63;;;1.03;93.28
13241;BME280;6687;47.790;7.322;2023-02-11T09:48:24;101016.88;;;1.23;89.74
13241;BME280;6687;47.790;7.322;2023-02-11T09:50:54;101023.63;;;1.11;91.18
13241;BME280;6687;47.790;7.322;2023-02-11T09:53:23;101020.31;;;1.24;89.18
13241;BME280;6687;47.790;7.322;2023-02-11T09:55:53;101019.84;;;1.29;87.81
13241;BME280;6687;47.790;7.322;2023-02-11T09:58:25;101015.78;;;1.31;86.13
13241;BME280;6687;47.790;7.322;2023-02-11T10:00:59;101018.53;;;1.34;85.50
13241;BME280;6687;47.790;7.322;2023-02-11T10:03:52;101011.41;;;1.54;84.26
13241;BME280;6687;47.790;7.322;2023-02-11T10:06:34;101018.97;;;1.41;84.04
13241;BME280;6687;47.790;7.322;2023-02-11T10:09:17;101019.63;;;1.50;83.98
13241;BME280;6687;47.790;7.322;2023-02-11T10:11:55;101016.63;;;1.55;83.63
13241;BME280;6687;47.790;7.322;2023-02-11T10:14:48;101028.06;;;1.49;84.30
13241;BME280;6687;47.790;7.322;2023-02-11T10:17:26;101019.19;;;1.55;83.74
13241;BME280;6687;47.790;7.322;2023-02-11T10:20:12;101022.75;;;1.46;84.56
13241;BME280;6687;47.790;7.322;2023-02-11T10:22:44;101024.75;;;1.26;86.15
13241;BME280;6687;47.790;7.322;2023-02-11T10:25:20;101017.84;;;1.25;88.44
13241;BME280;6687;47.790;7.322;2023-02-11T10:27:50;101032.53;;;1.39;87.84
13241;BME280;6687;47.790;7.322;2023-02-11T10:30:22;101027.19;;;1.48;86.71
13241;BME280;6687;47.790;7.322;2023-02-11T10:32:56;101027.00;;;1.33;88.05
13241;BME280;6687;47.790;7.322;2023-02-11T10:35:26;101034.72;;;1.47;87.58
13241;BME280;6687;47.790;7.322;2023-02-11T10:37:53;101034.97;;;1.50;87.30
13241;BME280;6687;47.790;7.322;2023-02-11T10:40:24;101033.41;;;1.52;86.75
13241;BME280;6687;47.790;7.322;2023-02-11T10:42:54;101028.94;;;1.61;85.97
13241;BME280;6687;47.790;7.322;2023-02-11T10:45:27;101028.94;;;1.61;85.20
13241;BME280;6687;47.790;7.322;2023-02-11T10:47:55;101028.94;;;1.61;85.03
13241;BME280;6687;47.790;7.322;2023-02-11T10:50:25;101018.06;;;1.64;85.17
13241;BME280;6687;47.790;7.322;2023-02-11T10:53:10;101019.50;;;1.60;85.52
13241;BME280;6687;47.790;7.322;2023-02-11T10:55:38;101008.06;;;1.43;86.16
13241;BME280;6687;47.790;7.322;2023-02-11T10:58:06;101004.38;;;1.63;86.00
13241;BME280;6687;47.790;7.322;2023-02-11T11:00:34;101007.41;;;1.69;85.53
13241;BME280;6687;47.790;7.322;2023-02-11T11:03:05;101006.94;;;1.63;85.89
13241;BME280;6687;47.790;7.322;2023-02-11T11:05:35;101004.19;;;1.60;85.90
13241;BME280;6687;47.790;7.322;2023-02-11T11:08:05;100997.84;;;1.55;85.92
13241;BME280;6687;47.790;7.322;2023-02-11T11:10:37;100988.44;;;1.54;86.60
13241;BME280;6687;47.790;7.322;2023-02-11T11:16:18;100981.13;;;1.84;86.03
13241;BME280;6687;47.790;7.322;2023-02-11T11:18:47;100973.78;;;1.88;85.50
13241;BME280;6687;47.790;7.322;2023-02-11T11:21:18;100975.56;;;1.89;85.52
13241;BME280;6687;47.790;7.322;2023-02-11T11:23:51;100973.09;;;1.91;86.06
13241;BME280;6687;47.790;7.322;2023-02-11T11:26:19;100974.00;;;1.91;86.50
13241;BME280;6687;47.790;7.322;2023-02-11T11:28:58;100972.84;;;1.99;87.06
13241;BME280;6687;47.790;7.322;2023-02-11T11:31:30;100972.03;;;1.87;86.17
13241;BME280;6687;47.790;7.322;2023-02-11T11:34:00;100970.91;;;1.84;86.49
13241;BME280;6687;47.790;7.322;2023-02-11T11:36:34;100961.66;;;2.11;88.98
13241;BME280;6687;47.790;7.322;2023-02-11T11:39:17;100961.25;;;2.05;87.44
13241;BME280;6687;47.790;7.322;2023-02-11T11:41:51;100948.75;;;1.96;87.40
13241;BME280;6687;47.790;7.322;2023-02-11T11:44:30;100949.81;;;1.74;87.19
13241;BME280;6687;47.790;7.322;2023-02-11T11:47:17;100938.88;;;1.89;86.45
13241;BME280;6687;47.790;7.322;2023-02-11T11:49:50;100935.97;;;1.96;86.33
13241;BME280;6687;47.790;7.322;2023-02-11T11:52:34;100927.66;;;2.12;88.25
13241;BME280;6687;47.790;7.322;2023-02-11T11:55:10;100909.81;;;2.00;86.28
13241;BME280;6687;47.790;7.322;2023-02-11T11:57:38;100915.09;;;1.90;85.68
13241;BME280;6687;47.790;7.322;2023-02-11T12:00:13;100917.09;;;1.94;82.52
13241;BME280;6687;47.790;7.322;2023-02-11T12:06:02;100915.50;;;1.96;85.02
13241;BME280;6687;47.790;7.322;2023-02-11T12:08:40;100917.09;;;1.94;85.11
13241;BME280;6687;47.790;7.322;2023-02-11T12:11:15;100913.94;;;1.98;84.86
13241;BME280;6687;47.790;7.322;2023-02-11T12:13:54;100915.94;;;2.02;85.58
13241;BME280;6687;47.790;7.322;2023-02-11T12:16:34;100906.56;;;2.03;85.34
13241;BME280;6687;47.790;7.322;2023-02-11T12:19:37;100897.22;;;1.90;83.42
13241;BME280;6687;47.790;7.322;2023-02-11T12:22:11;100897.94;;;2.01;82.78
13241;BME280;6687;47.790;7.322;2023-02-11T12:24:58;100897.16;;;2.02;82.98
13241;BME280;6687;47.790;7.322;2023-02-11T12:27:42;100894.88;;;2.31;88.67
13241;BME280;6687;47.790;7.322;2023-02-11T12:30:26;100891.84;;;2.37;90.05
13241;BME280;6687;47.790;7.322;2023-02-11T12:33:01;100883.00;;;2.45;90.51
13241;BME280;6687;47.790;7.322;2023-02-11T12:35:40;100888.44;;;2.25;89.11
13241;BME280;6687;47.790;7.322;2023-02-11T12:38:37;100891.81;;;2.24;89.39
13241;BME280;6687;47.790;7.322;2023-02-11T12:41:22;100891.66;;;2.47;92.54
13241;BME280;6687;47.790;7.322;2023-02-11T12:44:19;100894.47;;;2.25;89.28
13241;BME280;6687;47.790;7.322;2023-02-11T12:46:55;100878.84;;;2.34;90.45
13241;BME280;6687;47.790;7.322;2023-02-11T12:49:35;100876.75;;;2.28;89.38
13241;BME280;6687;47.790;7.322;2023-02-11T12:52:15;100885.63;;;2.33;90.01
13241;BME280;6687;47.790;7.322;2023-02-11T12:54:50;100882.59;;;2.39;91.96
13241;BME280;6687;47.790;7.322;2023-02-11T12:57:22;100874.00;;;2.25;88.48
13241;BME280;6687;47.790;7.322;2023-02-11T12:59:55;100880.00;;;2.26;88.65
13241;BME280;6687;47.790;7.322;2023-02-11T13:02:33;100875.75;;;2.26;87.91
13241;BME280;6687;47.790;7.322;2023-02-11T13:05:09;100870.72;;;2.14;86.11
13241;BME280;6687;47.790;7.322;2023-02-11T13:07:40;100873.34;;;2.54;92.97
13241;BME280;6687;47.790;7.322;2023-02-11T13:10:21;100877.47;;;2.52;91.55
13241;BME280;6687;47.790;7.322;2023-02-11T13:12:51;100874.72;;;2.49;90.98
13241;BME280;6687;47.790;7.322;2023-02-11T13:15:35;100868.81;;;2.64;94.65
13241;BME280;6687;47.790;7.322;2023-02-11T13:18:12;100865.88;;;2.57;92.42
13241;BME280;6687;47.790;7.322;2023-02-11T13:20:44;100856.41;;;2.70;93.93
13241;BME280;6687;47.790;7.322;2023-02-11T13:23:20;100850.41;;;2.56;92.75
13241;BME280;6687;47.790;7.322;2023-02-11T13:25:54;100852.28;;;2.45;91.05
13241;BME280;6687;47.790;7.322;2023-02-11T13:28:31;100851.59;;;2.61;91.80
13241;BME280;6687;47.790;7.322;2023-02-11T13:31:01;100842.06;;;2.45;90.27
13241;BME280;6687;47.790;7.322;2023-02-11T13:33:35;100841.16;;;2.45;88.13
13241;BME280;6687;47.790;7.322;2023-02-11T13:36:21;100841.66;;;2.52;84.51
13241;BME280;6687;47.790;7.322;2023-02-11T13:38:55;100835.38;;;2.47;85.55
13241;BME280;6687;47.790;7.322;2023-02-11T13:41:27;100837.22;;;2.50;85.84
13241;BME280;6687;47.790;7.322;2023-02-11T13:44:00;100836.16;;;2.59;90.83
13241;BME280;6687;47.790;7.322;2023-02-11T13:46:29;100832.59;;;2.57;88.52
13241;BME280;6687;47.790;7.322;2023-02-11T13:49:17;100831.41;;;2.66;85.94
13241;BME280;6687;47.790;7.322;2023-02-11T13:51:45;100830.81;;;2.56;83.66
13241;BME280;6687;47.790;7.322;2023-02-11T13:54:22;100825.31;;;2.50;83.17
13241;BME280;6687;47.790;7.322;2023-02-11T13:57:25;100829.56;;;2.50;83.62
13241;BME280;6687;47.790;7.322;2023-02-11T13:59:53;100834.56;;;2.62;80.81
13241;BME280;6687;47.790;7.322;2023-02-11T14:02:26;100833.50;;;2.58;81.64
13241;BME280;6687;47.790;7.322;2023-02-11T14:05:26;100833.31;;;2.55;83.98
13241;BME280;6687;47.790;7.322;2023-02-11T14:08:19;100842.63;;;2.81;89.21
13241;BME280;6687;47.790;7.322;2023-02-11T14:11:06;100832.31;;;2.53;82.94
13241;BME280;6687;47.790;7.322;2023-02-11T14:14:02;100826.19;;;2.77;81.01
13241;BME280;6687;47.790;7.322;2023-02-11T14:19:47;100827.78;;;2.75;75.38
13241;BME280;6687;47.790;7.322;2023-02-11T14:22:16;100822.97;;;2.67;76.19
13241;BME280;6687;47.790;7.322;2023-02-11T14:24:48;100821.19;;;2.66;75.88
13241;BME280;6687;47.790;7.322;2023-02-11T14:27:21;100824.94;;;2.71;80.31
13241;BME280;6687;47.790;7.322;2023-02-11T14:30:03;100828.63;;;3.03;90.74
13241;BME280;6687;47.790;7.322;2023-02-11T14:32:38;100820.16;;;3.04;90.88
13241;BME280;6687;47.790;7.322;2023-02-11T14:35:22;100813.28;;;2.89;88.15
13241;BME280;6687;47.790;7.322;2023-02-11T14:38:00;100819.28;;;2.76;84.41
13241;BME280;6687;47.790;7.322;2023-02-11T14:40:33;100810.38;;;3.11;77.79
13241;BME280;6687;47.790;7.322;2023-02-11T14:43:06;100815.91;;;3.04;75.68
13241;BME280;6687;47.790;7.322;2023-02-11T14:45:37;100806.75;;;3.08;74.44
13241;BME280;6687;47.790;7.322;2023-02-11T14:48:07;100803.31;;;3.35;77.32
13241;BME280;6687;47.790;7.322;2023-02-11T14:50:44;100800.59;;;3.19;72.45
13241;BME280;6687;47.790;7.322;2023-02-11T14:53:14;100797.69;;;3.56;68.99
13241;BME280;6687;47.790;7.322;2023-02-11T14:55:46;100797.09;;;3.32;78.57
13241;BME280;6687;47.790;7.322;2023-02-11T14:58:16;100798.88;;;3.33;75.83
13241;BME280;6687;47.790;7.322;2023-02-11T15:00:52;100797.69;;;3.56;70.30
13241;BME280;6687;47.790;7.322;2023-02-11T15:03:27;100795.06;;;3.54;68.81
13241;BME280;6687;47.790;7.322;2023-02-11T15:05:58;100788.84;;;3.51;67.27
13241;BME280;6687;47.790;7.322;2023-02-11T15:08:26;100797.47;;;3.38;69.62
13241;BME280;6687;47.790;7.322;2023-02-11T15:10:53;100799.09;;;3.51;68.89
13241;BME280;6687;47.790;7.322;2023-02-11T15:13:22;100803.38;;;3.65;67.70
13241;BME280;6687;47.790;7.322;2023-02-11T15:15:53;100807.41;;;3.47;74.91
13241;BME280;6687;47.790;7.322;2023-02-11T15:18:23;100799.47;;;3.57;73.59
13241;BME280;6687;47.790;7.322;2023-02-11T15:20:51;100805.97;;;3.52;70.05
13241;BME280;6687;47.790;7.322;2023-02-11T15:23:22;100805.31;;;3.54;68.25
13241;BME280;6687;47.790;7.322;2023-02-11T15:25:50;100809.22;;;3.77;66.99
13241;BME280;6687;47.790;7.322;2023-02-11T15:28:21;100819.97;;;3.57;68.80
13241;BME280;6687;47.790;7.322;2023-02-11T15:30:56;100807.63;;;3.79;67.84
13241;BME280;6687;47.790;7.322;2023-02-11T15:33:23;100820.53;;;3.66;69.11
13241;BME280;6687;47.790;7.322;2023-02-11T15:35:50;100820.00;;;3.72;69.08
13241;BME280;6687;47.790;7.322;2023-02-11T15:38:17;100819.41;;;4.21;66.28
13241;BME280;6687;47.790;7.322;2023-02-11T15:40:53;100822.16;;;3.94;68.92
13241;BME280;6687;47.790;7.322;2023-02-11T15:43:20;100819.34;;;4.04;67.12
13241;BME280;6687;47.790;7.322;2023-02-11T15:45:56;100815.59;;;3.99;66.96
13241;BME280;6687;47.790;7.322;2023-02-11T15:48:33;100813.41;;;4.05;66.37
13241;BME280;6687;47.790;7.322;2023-02-11T15:51:02;100815.06;;;4.19;66.12
13241;BME280;6687;47.790;7.322;2023-02-11T15:53:35;100807.47;;;4.21;65.80
13241;BME280;6687;47.790;7.322;2023-02-11T15:56:12;100812.41;;;4.33;66.15
13241;BME280;6687;47.790;7.322;2023-02-11T15:58:44;100813.63;;;4.39;65.10
13241;BME280;6687;47.790;7.322;2023-02-11T16:01:13;100817.22;;;4.12;70.80
13241;BME280;6687;47.790;7.322;2023-02-11T16:03:41;100811.88;;;4.24;69.57
13241;BME280;6687;47.790;7.322;2023-02-11T16:06:18;100813.66;;;4.25;67.63
13241;BME280;6687;47.790;7.322;2023-02-11T16:08:59;100814.19;;;4.34;66.98
13241;BME280;6687;47.790;7.322;2023-02-11T16:11:29;100813.81;;;4.43;67.99
13241;BME280;6687;47.790;7.322;2023-02-11T16:13:57;100820.66;;;4.42;66.05
13241;BME280;6687;47.790;7.322;2023-02-11T16:16:27;100824.22;;;4.61;65.14
13241;BME280;6687;47.790;7.322;2023-02-11T16:18:56;100818.13;;;4.58;65.22
13241;BME280;6687;47.790;7.322;2023-02-11T16:21:27;100824.22;;;4.61;64.50
13241;BME280;6687;47.790;7.322;2023-02-11T16:23:57;100822.94;;;4.52;64.67
13241;BME280;6687;47.790;7.322;2023-02-11T16:26:30;100821.16;;;4.51;64.76
13241;BME280;6687;47.790;7.322;2023-02-11T16:29:05;100823.19;;;4.57;64.50
13241;BME280;6687;47.790;7.322;2023-02-11T16:31:35;100816.97;;;4.53;64.75
13241;BME280;6687;47.790;7.322;2023-02-11T16:34:10;100825.50;;;4.52;65.61
13241;BME280;6687;47.790;7.322;2023-02-11T16:36:37;100828.06;;;4.52;65.39
13241;BME280;6687;47.790;7.322;2023-02-11T16:39:04;100822.09;;;4.53;65.21
13241;BME280;6687;47.790;7.322;2023-02-11T16:41:32;100831.06;;;4.45;65.88
13241;BME280;6687;47.790;7.322;2023-02-11T16:43:59;100828.69;;;4.48;65.74
13241;BME280;6687;47.790;7.322;2023-02-11T16:46:25;100832.94;;;4.48;65.82
13241;BME280;6687;47.790;7.322;2023-02-11T16:48:53;100835.41;;;4.46;65.49
13241;BME280;6687;47.790;7.322;2023-02-11T16:51:20;100837.63;;;4.40;65.87
13241;BME280;6687;47.790;7.322;2023-02-11T16:53:47;100846.03;;;4.37;66.15
13241;BME280;6687;47.790;7.322;2023-02-11T16:56:15;100843.81;;;4.29;66.50
13241;BME280;6687;47.790;7.322;2023-02-11T16:58:44;100853.03;;;4.25;66.87
13241;BME280;6687;47.790;7.322;2023-02-11T17:01:11;100853.66;;;4.21;67.18
13241;BME280;6687;47.790;7.322;2023-02-11T17:03:38;100860.28;;;4.17;67.40
13241;BME280;6687;47.790;7.322;2023-02-11T17:06:07;100859.41;;;4.17;67.40
13241;BME280;6687;47.790;7.322;2023-02-11T17:08:35;100852.22;;;4.11;67.83
13241;BME280;6687;47.790;7.322;2023-02-11T17:11:02;100855.59;;;4.10;67.82
13241;BME280;6687;47.790;7.322;2023-02-11T17:13:28;100860.38;;;4.04;67.96
13241;BME280;6687;47.790;7.322;2023-02-11T17:15:57;100865.31;;;4.01;67.95
13241;BME280;6687;47.790;7.322;2023-02-11T17:18:23;100874.34;;;3.94;68.02
13241;BME280;6687;47.790;7.322;2023-02-11T17:20:50;100868.13;;;3.91;68.21
13241;BME280;6687;47.790;7.322;2023-02-11T17:23:17;100872.09;;;3.86;68.65
13241;BME280;6687;47.790;7.322;2023-02-11T17:25:44;100868.47;;;3.82;68.73
13241;BME280;6687;47.790;7.322;2023-02-11T17:28:11;100871.56;;;3.76;69.14
13241;BME280;6687;47.790;7.322;2023-02-11T17:30:39;100879.03;;;3.73;69.43
13241;BME280;6687;47.790;7.322;2023-02-11T17:33:08;100883.09;;;3.70;69.47
13241;BME280;6687;47.790;7.322;2023-02-11T17:35:38;100886.09;;;3.63;69.77
13241;BME280;6687;47.790;7.322;2023-02-11T17:38:05;100896.16;;;3.59;69.94
13241;BME280;6687;47.790;7.322;2023-02-11T17:40:31;100890.16;;;3.59;70.29
13241;BME280;6687;47.790;7.322;2023-02-11T17:42:58;100891.03;;;3.59;70.19
13241;BME280;6687;47.790;7.322;2023-02-11T17:45:25;100893.31;;;3.55;70.21
13241;BME280;6687;47.790;7.322;2023-02-11T17:47:51;100896.66;;;3.54;70.66
13241;BME280;6687;47.790;7.322;2023-02-11T17:50:20;100897.50;;;3.39;71.07
13241;BME280;6687;47.790;7.322;2023-02-11T17:52:46;100902.81;;;3.43;71.22
13241;BME280;6687;47.790;7.322;2023-02-11T17:55:13;100895.53;;;3.35;71.40
13241;BME280;6687;47.790;7.322;2023-02-11T17:57:40;100894.16;;;3.41;71.26
13241;BME280;6687;47.790;7.322;2023-02-11T18:00:08;100895.53;;;3.35;71.57
13241;BME280;6687;47.790;7.322;2023-02-11T18:02:35;100895.34;;;3.32;71.79
13241;BME280;6687;47.790;7.322;2023-02-11T18:05:02;100900.78;;;3.24;72.25
13241;BME280;6687;47.790;7.322;2023-02-11T18:07:30;100891.94;;;3.18;72.47
13241;BME280;6687;47.790;7.322;2023-02-11T18:09:57;100898.03;;;3.21;72.24
13241;BME280;6687;47.790;7.322;2023-02-11T18:12:24;100900.78;;;3.24;72.12
13241;BME280;6687;47.790;7.322;2023-02-11T18:14:51;100897.72;;;3.16;72.50
13241;BME280;6687;47.790;7.322;2023-02-11T18:17:19;100902.25;;;3.20;72.41
13241;BME280;6687;47.790;7.322;2023-02-11T18:19:46;100899.31;;;3.14;72.25
13241;BME280;6687;47.790;7.322;2023-02-11T18:22:13;100895.97;;;3.15;72.26
13241;BME280;6687;47.790;7.322;2023-02-11T18:24:41;100896.25;;;3.06;72.55
13241;BME280;6687;47.790;7.322;2023-02-11T18:27:08;100907.03;;;3.01;72.64
13241;BME280;6687;47.790;7.322;2023-02-11T18:29:35;100905.06;;;2.96;72.82
13241;BME280;6687;47.790;7.322;2023-02-11T18:32:01;100903.88;;;2.91;72.97
13241;BME280;6687;47.790;7.322;2023-02-11T18:34:28;100895.97;;;2.88;73.12
13241;BME280;6687;47.790;7.322;2023-02-11T18:36:56;100910.94;;;2.82;73.48
13241;BME280;6687;47.790;7.322;2023-02-11T18:39:22;100909.19;;;2.81;73.84
13241;BME280;6687;47.790;7.322;2023-02-11T18:41:53;100914.09;;;2.78;74.11
13241;BME280;6687;47.790;7.322;2023-02-11T18:44:21;100913.91;;;2.75;74.12
13241;BME280;6687;47.790;7.322;2023-02-11T18:46:49;100921.19;;;2.69;74.59
13241;BME280;6687;47.790;7.322;2023-02-11T18:49:17;100916.69;;;2.65;74.92
13241;BME280;6687;47.790;7.322;2023-02-11T18:51:44;100917.44;;;2.64;75.07
13241;BME280;6687;47.790;7.322;2023-02-11T18:54:11;100924.63;;;2.69;74.95
13241;BME280;6687;47.790;7.322;2023-02-11T18:56:38;100932.69;;;2.62;75.18
13241;BME280;6687;47.790;7.322;2023-02-11T18:59:07;100921.97;;;2.68;75.12
13241;BME280;6687;47.790;7.322;2023-02-11T19:01:34;100922.19;;;2.71;74.79
13241;BME280;6687;47.790;7.322;2023-02-11T19:04:04;100922.19;;;2.71;74.70
13241;BME280;6687;47.790;7.322;2023-02-11T19:06:32;100925.91;;;2.76;74.50
13241;BME280;6687;47.790;7.322;2023-02-11T19:09:02;100920.03;;;2.77;74.39
13241;BME280;6687;47.790;7.322;2023-02-11T19:11:30;100926.13;;;2.79;74.47
13241;BME280;6687;47.790;7.322;2023-02-11T19:14:17;100930.03;;;2.61;74.96
13241;BME280;6687;47.790;7.322;2023-02-11T19:16:45;100932.59;;;2.47;75.32
13241;BME280;6687;47.790;7.322;2023-02-11T19:19:14;100925.91;;;2.49;75.40
13241;BME280;6687;47.790;7.322;2023-02-11T19:21:41;100931.38;;;2.42;75.80
13241;BME280;6687;47.790;7.322;2023-02-11T19:24:09;100928.72;;;2.41;75.68
13241;BME280;6687;47.790;7.322;2023-02-11T19:26:37;100933.25;;;2.45;75.60
13241;BME280;6687;47.790;7.322;2023-02-11T19:29:05;100930.59;;;2.43;75.56
13241;BME280;6687;47.790;7.322;2023-02-11T19:31:33;100940.44;;;2.50;75.30
13241;BME280;6687;47.790;7.322;2023-02-11T19:34:01;100934.38;;;2.62;75.11
13241;BME280;6687;47.790;7.322;2023-02-11T19:36:28;100940.88;;;2.70;75.56
13241;BME280;6687;47.790;7.322;2023-02-11T19:38:57;100938.53;;;2.73;75.18
13241;BME280;6687;47.790;7.322;2023-02-11T19:41:24;100944.38;;;2.58;75.18
13241;BME280;6687;47.790;7.322;2023-02-11T19:43:51;100946.53;;;2.52;75.94
13241;BME280;6687;47.790;7.322;2023-02-11T19:46:18;100936.53;;;2.55;75.98
13241;BME280;6687;47.790;7.322;2023-02-11T19:48:47;100934.16;;;2.58;75.76
13241;BME280;6687;47.790;7.322;2023-02-11T19:51:14;100940.06;;;2.57;75.94